Time;durP1;ratioP1;P1;durP2;ratioP2;P2;SDS_P1;SDS_P2;PMS_P1;PMS_P2;Temp;Humidity;BMP_temperature;BMP_pressure;BME280_temperature;BME280_humidity;BME280_pressure;Samples;Min_cycle;Max_cycle;Signal;HPM_P1;HPM_P2
2022/07/06 00:02:22;;;;;;;6.15;1.48;;;;;;;;;;5113585;28;20047;-68
2022/07/06 00:04:49;;;;;;;4.93;1.55;;;;;;;;;;5113763;28;20108;-68
2022/07/06 00:07:16;;;;;;;3.10;1.42;;;;;;;;;;5115331;28;20390;-68
2022/07/06 00:09:42;;;;;;;5.40;1.10;;;;;;;;;;5114613;28;20177;-68
2022/07/06 00:12:10;;;;;;;7.10;1.60;;;;;;;;;;5115193;28;20079;-68
2022/07/06 00:14:36;;;;;;;7.25;1.40;;;;;;;;;;5114826;28;20050;-68
2022/07/06 00:17:02;;;;;;;4.03;1.30;;;;;;;;;;5114664;28;20633;-68
2022/07/06 00:19:29;;;;;;;6.03;1.50;;;;;;;;;;5115807;27;20035;-68
2022/07/06 00:21:55;;;;;;;3.58;1.30;;;;;;;;;;5113677;28;20044;-68
2022/07/06 00:24:21;;;;;;;3.97;1.30;;;;;;;;;;5096268;28;20069;-68
2022/07/06 00:26:47;;;;;;;6.28;1.17;;;;;;;;;;5128351;27;20035;-68
2022/07/06 00:29:14;;;;;;;4.75;1.35;;;;;;;;;;5135350;27;20403;-68
2022/07/06 00:31:41;;;;;;;1.92;1.10;;;;;;;;;;5134988;27;20168;-68
2022/07/06 00:34:07;;;;;;;6.38;1.30;;;;;;;;;;5135607;27;20047;-68
2022/07/06 00:36:34;;;;;;;3.80;1.08;;;;;;;;;;5135089;27;20074;-68
2022/07/06 00:39:00;;;;;;;5.40;1.20;;;;;;;;;;5133856;27;20381;-68
2022/07/06 00:41:29;;;;;;;6.20;1.45;;;;;;;;;;5134186;27;20121;-68
2022/07/06 00:43:57;;;;;;;4.13;1.40;;;;;;;;;;5134346;27;20095;-68
2022/07/06 00:46:27;;;;;;;4.72;1.45;;;;;;;;;;5133430;27;20046;-68
2022/07/06 00:48:53;;;;;;;3.75;1.10;;;;;;;;;;5133595;27;20534;-68
2022/07/06 00:51:20;;;;;;;4.13;1.10;;;;;;;;;;5134951;27;20035;-68
2022/07/06 00:53:46;;;;;;;3.50;1.75;;;;;;;;;;5135029;27;20114;-68
2022/07/06 00:56:12;;;;;;;5.00;1.30;;;;;;;;;;5134666;27;20125;-68
2022/07/06 00:58:39;;;;;;;4.43;1.13;;;;;;;;;;5133406;27;20043;-68
2022/07/06 01:01:05;;;;;;;3.88;1.35;;;;;;;;;;5134950;27;20078;-68
2022/07/06 01:03:32;;;;;;;5.47;1.65;;;;;;;;;;5134351;27;20174;-68
2022/07/06 01:05:58;;;;;;;5.80;1.50;;;;;;;;;;5134448;27;20122;-68
2022/07/06 01:08:24;;;;;;;4.50;1.65;;;;;;;;;;5134937;27;20039;-68
2022/07/06 01:10:51;;;;;;;3.63;1.60;;;;;;;;;;5134290;27;20150;-68
2022/07/06 01:13:17;;;;;;;3.15;1.42;;;;;;;;;;5134874;27;20083;-68
2022/07/06 01:15:43;;;;;;;6.63;1.75;;;;;;;;;;5135249;27;20043;-68
2022/07/06 01:18:11;;;;;;;3.45;1.45;;;;;;;;;;5133954;27;20058;-68
2022/07/06 01:20:41;;;;;;;2.88;1.35;;;;;;;;;;5134202;27;20043;-68
2022/07/06 01:23:07;;;;;;;3.83;1.30;;;;;;;;;;5133344;28;20179;-68
2022/07/06 01:25:33;;;;;;;4.78;1.20;;;;;;;;;;5129813;27;20092;-68
2022/07/06 01:27:59;;;;;;;5.13;1.55;;;;;;;;;;5113911;28;20032;-68
2022/07/06 01:30:25;;;;;;;4.32;1.75;;;;;;;;;;5114181;28;20118;-68
2022/07/06 01:32:51;;;;;;;3.65;1.30;;;;;;;;;;5113195;28;20092;-68
2022/07/06 01:35:17;;;;;;;4.32;1.30;;;;;;;;;;5112663;28;20482;-68
2022/07/06 01:37:46;;;;;;;3.95;1.42;;;;;;;;;;5115488;28;20040;-68
2022/07/06 01:40:13;;;;;;;4.90;1.60;;;;;;;;;;5117664;28;20035;-68
2022/07/06 01:42:39;;;;;;;5.25;1.40;;;;;;;;;;5117225;28;20478;-68
2022/07/06 01:45:06;;;;;;;4.63;1.40;;;;;;;;;;5116380;28;20071;-68
2022/07/06 01:47:34;;;;;;;7.13;2.00;;;;;;;;;;5116902;28;20032;-68
2022/07/06 01:50:04;;;;;;;5.07;1.55;;;;;;;;;;5117625;27;20046;-68
2022/07/06 01:52:30;;;;;;;6.75;1.50;;;;;;;;;;5117408;28;20039;-68
2022/07/06 01:54:57;;;;;;;2.83;1.30;;;;;;;;;;5117248;28;20075;-68
2022/07/06 01:57:23;;;;;;;3.67;1.73;;;;;;;;;;5117509;28;20047;-68
2022/07/06 01:59:50;;;;;;;3.92;1.65;;;;;;;;;;5117667;28;20381;-68
2022/07/06 02:02:17;;;;;;;5.47;1.70;;;;;;;;;;5116907;28;20111;-68
2022/07/06 02:04:44;;;;;;;5.53;1.52;;;;;;;;;;5115697;28;20079;-68
2022/07/06 02:07:12;;;;;;;4.82;1.38;;;;;;;;;;5117704;28;20039;-68
2022/07/06 02:09:39;;;;;;;6.53;1.88;;;;;;;;;;5115664;28;20359;-68
2022/07/06 02:12:06;;;;;;;5.30;1.60;;;;;;;;;;5116175;28;20046;-68
2022/07/06 02:14:32;;;;;;;6.00;2.40;;;;;;;;;;5117362;28;20114;-68
2022/07/06 02:17:00;;;;;;;7.90;1.90;;;;;;;;;;5116411;28;20047;-68
2022/07/06 02:19:26;;;;;;;5.60;1.73;;;;;;;;;;5117282;28;20134;-68
2022/07/06 02:21:52;;;;;;;5.68;1.80;;;;;;;;;;5116042;28;20079;-68
2022/07/06 02:24:19;;;;;;;5.40;1.88;;;;;;;;;;5115222;28;20066;-68
2022/07/06 02:26:46;;;;;;;3.85;1.83;;;;;;;;;;5116570;28;20038;-68
2022/07/06 02:29:13;;;;;;;3.53;1.50;;;;;;;;;;5116904;28;20047;-68
2022/07/06 02:31:44;;;;;;;5.70;1.92;;;;;;;;;;5116443;28;20478;-68
2022/07/06 02:34:11;;;;;;;3.15;1.98;;;;;;;;;;5116554;27;20039;-68
2022/07/06 02:36:39;;;;;;;4.53;1.58;;;;;;;;;;5116507;28;20043;-68
2022/07/06 02:39:06;;;;;;;5.97;1.75;;;;;;;;;;5116207;27;20122;-68
2022/07/06 02:41:32;;;;;;;5.15;1.90;;;;;;;;;;5097969;28;20035;-68
2022/07/06 02:43:58;;;;;;;4.00;1.63;;;;;;;;;;5116550;28;20498;-68
2022/07/06 02:46:25;;;;;;;5.75;1.83;;;;;;;;;;5116114;28;20096;-68
2022/07/06 02:48:54;;;;;;;1.55;1.27;;;;;;;;;;5115576;28;20043;-68
2022/07/06 02:51:20;;;;;;;2.35;1.48;;;;;;;;;;5116448;28;20047;-68
2022/07/06 02:53:46;;;;;;;5.95;1.48;;;;;;;;;;5115935;28;20071;-68
2022/07/06 02:56:12;;;;;;;3.65;1.35;;;;;;;;;;5116071;28;20035;-68
2022/07/06 02:58:43;;;;;;;6.55;1.95;;;;;;;;;;5116609;28;20047;-68
2022/07/06 03:01:09;;;;;;;5.22;1.52;;;;;;;;;;5115365;28;20088;-68
2022/07/06 03:03:35;;;;;;;1.95;1.20;;;;;;;;;;5116153;27;20048;-68
2022/07/06 03:06:01;;;;;;;3.53;1.13;;;;;;;;;;5116042;27;20059;-68
2022/07/06 03:08:27;;;;;;;8.30;1.40;;;;;;;;;;5115772;28;20428;-68
2022/07/06 03:10:53;;;;;;;2.28;1.02;;;;;;;;;;5115959;28;20043;-68
2022/07/06 03:13:19;;;;;;;3.60;1.20;;;;;;;;;;5116284;28;20657;-68
2022/07/06 03:15:45;;;;;;;4.45;1.17;;;;;;;;;;5115508;28;20050;-68
2022/07/06 03:18:12;;;;;;;4.57;1.42;;;;;;;;;;5116025;28;20039;-68
2022/07/06 03:20:38;;;;;;;5.55;1.40;;;;;;;;;;5097860;28;20389;-68
2022/07/06 03:23:04;;;;;;;3.22;1.02;;;;;;;;;;5115139;27;20043;-69
2022/07/06 03:25:32;;;;;;;4.05;1.20;;;;;;;;;;5118774;27;20043;-69
2022/07/06 03:27:58;;;;;;;4.97;1.15;;;;;;;;;;5136693;27;20043;-69
2022/07/06 03:30:25;;;;;;;4.72;1.15;;;;;;;;;;5136270;27;20035;-69
2022/07/06 03:32:51;;;;;;;5.28;1.17;;;;;;;;;;5136585;27;20035;-69
2022/07/06 03:35:18;;;;;;;4.30;1.05;;;;;;;;;;5136716;27;20074;-68
2022/07/06 03:37:44;;;;;;;4.35;0.98;;;;;;;;;;5135211;27;20054;-68
2022/07/06 03:40:10;;;;;;;4.03;1.08;;;;;;;;;;5136422;27;20553;-68
2022/07/06 03:42:38;;;;;;;2.83;0.82;;;;;;;;;;5136035;27;20043;-68
2022/07/06 03:45:07;;;;;;;4.38;1.33;;;;;;;;;;5135203;27;20035;-68
2022/07/06 03:47:33;;;;;;;3.88;1.00;;;;;;;;;;5136122;27;20062;-68
2022/07/06 03:49:59;;;;;;;5.13;1.02;;;;;;;;;;5136214;27;20423;-68
2022/07/06 03:52:26;;;;;;;3.53;1.00;;;;;;;;;;5135241;27;20035;-68
2022/07/06 03:54:56;;;;;;;7.30;1.33;;;;;;;;;;5134475;27;20050;-68
2022/07/06 03:57:23;;;;;;;4.72;1.13;;;;;;;;;;5134347;27;20108;-68
2022/07/06 03:59:49;;;;;;;2.42;0.75;;;;;;;;;;5135128;27;20039;-68
2022/07/06 04:02:15;;;;;;;4.93;1.10;;;;;;;;;;5135703;27;20043;-68
2022/07/06 04:04:41;;;;;;;5.68;1.10;;;;;;;;;;5133952;27;20056;-68
2022/07/06 04:07:07;;;;;;;4.18;1.00;;;;;;;;;;5134937;27;20485;-68
2022/07/06 04:09:33;;;;;;;6.75;1.25;;;;;;;;;;5135114;27;20043;-68
2022/07/06 04:11:59;;;;;;;4.97;1.20;;;;;;;;;;5135585;27;20118;-68
2022/07/06 04:14:27;;;;;;;4.40;1.00;;;;;;;;;;5134823;27;20055;-68
2022/07/06 04:16:53;;;;;;;5.63;1.02;;;;;;;;;;5134998;27;20077;-68
2022/07/06 04:19:20;;;;;;;4.30;1.23;;;;;;;;;;5133797;27;20054;-68
2022/07/06 04:21:46;;;;;;;3.47;1.00;;;;;;;;;;5133292;27;20043;-68
2022/07/06 04:24:12;;;;;;;4.45;1.10;;;;;;;;;;5133939;27;20047;-68
2022/07/06 04:26:38;;;;;;;5.60;1.30;;;;;;;;;;5135209;27;20088;-68
2022/07/06 04:29:04;;;;;;;4.80;1.10;;;;;;;;;;5134609;27;20038;-68
2022/07/06 04:31:30;;;;;;;4.00;1.10;;;;;;;;;;5133212;27;20043;-68
2022/07/06 04:33:56;;;;;;;5.20;0.95;;;;;;;;;;5133782;27;20039;-68
2022/07/06 04:36:22;;;;;;;4.40;0.90;;;;;;;;;;5134661;27;20047;-68
2022/07/06 04:38:54;;;;;;;9.57;1.17;;;;;;;;;;5135559;27;20118;-68
2022/07/06 04:41:20;;;;;;;4.65;0.95;;;;;;;;;;5135142;27;20074;-68
2022/07/06 04:43:47;;;;;;;2.95;1.08;;;;;;;;;;5134590;27;20474;-68
2022/07/06 04:46:13;;;;;;;6.28;1.42;;;;;;;;;;5134810;27;20126;-68
2022/07/06 04:48:40;;;;;;;11.55;1.50;;;;;;;;;;5133778;27;20605;-68
2022/07/06 04:51:07;;;;;;;3.42;1.10;;;;;;;;;;5133124;27;20039;-69
2022/07/06 04:53:33;;;;;;;7.55;1.90;;;;;;;;;;5134979;27;20047;-69
2022/07/06 04:55:59;;;;;;;4.97;1.00;;;;;;;;;;5133470;27;20389;-69
2022/07/06 04:58:25;;;;;;;2.80;1.05;;;;;;;;;;5134298;27;20046;-69
2022/07/06 05:00:53;;;;;;;5.25;0.80;;;;;;;;;;5134991;27;20035;-69
2022/07/06 05:03:19;;;;;;;6.22;0.90;;;;;;;;;;5133158;27;20051;-69
2022/07/06 05:05:48;;;;;;;6.03;1.25;;;;;;;;;;5133751;27;20111;-68
2022/07/06 05:08:15;;;;;;;4.55;0.88;;;;;;;;;;5117722;28;20042;-68
2022/07/06 05:10:42;;;;;;;3.65;0.80;;;;;;;;;;5133975;27;20093;-68
2022/07/06 05:13:08;;;;;;;4.50;0.93;;;;;;;;;;5115289;27;20038;-68
2022/07/06 05:15:37;;;;;;;4.07;1.00;;;;;;;;;;5132377;27;20039;-68
2022/07/06 05:18:03;;;;;;;5.65;1.10;;;;;;;;;;5134256;27;20039;-68
2022/07/06 05:20:30;;;;;;;4.82;0.85;;;;;;;;;;5133970;27;20043;-68
2022/07/06 05:22:57;;;;;;;6.40;0.98;;;;;;;;;;5134443;27;20042;-68
2022/07/06 05:25:23;;;;;;;5.55;0.90;;;;;;;;;;5130588;28;20046;-69
2022/07/06 05:27:49;;;;;;;7.60;0.80;;;;;;;;;;5113024;28;20035;-68
2022/07/06 05:30:15;;;;;;;2.72;0.70;;;;;;;;;;5112423;28;20036;-68
2022/07/06 05:32:41;;;;;;;5.05;0.73;;;;;;;;;;5113564;28;20036;-68
2022/07/06 05:35:08;;;;;;;4.78;0.98;;;;;;;;;;5111951;28;20035;-68
2022/07/06 05:37:40;;;;;;;5.57;0.70;;;;;;;;;;5113866;28;20035;-68
2022/07/06 05:40:06;;;;;;;4.22;0.65;;;;;;;;;;5114167;28;20043;-68
2022/07/06 05:42:33;;;;;;;3.78;0.70;;;;;;;;;;5113331;28;20038;-68
2022/07/06 05:45:00;;;;;;;3.05;0.68;;;;;;;;;;5114118;28;20267;-68
2022/07/06 05:50:14;;;;;;;3.47;0.85;;;;;;;;;;5113487;28;20059;-68
2022/07/06 05:52:44;;;;;;;6.20;0.82;;;;;;;;;;5112805;28;20049;-68
2022/07/06 05:55:12;;;;;;;2.45;0.57;;;;;;;;;;5113893;28;20410;-68
2022/07/06 05:57:41;;;;;;;4.80;0.77;;;;;;;;;;5113245;28;20043;-68
2022/07/06 06:00:08;;;;;;;4.47;0.73;;;;;;;;;;5113524;28;20044;-70
2022/07/06 06:02:41;;;;;;;3.85;0.70;;;;;;;;;;5129941;27;20046;-67
2022/07/06 06:05:08;;;;;;;3.60;0.50;;;;;;;;;;5130356;27;20051;-66
2022/07/06 06:07:38;;;;;;;2.78;0.60;;;;;;;;;;5120939;27;20042;-67
2022/07/06 06:10:07;;;;;;;3.75;0.60;;;;;;;;;;5117099;27;20161;-67
2022/07/06 06:12:34;;;;;;;2.50;0.60;;;;;;;;;;5136921;27;20092;-68
2022/07/06 06:15:00;;;;;;;5.68;0.70;;;;;;;;;;5144477;27;20126;-68
2022/07/06 06:17:26;;;;;;;3.67;0.60;;;;;;;;;;5142038;27;20047;-68
2022/07/06 06:19:52;;;;;;;2.22;0.43;;;;;;;;;;5151460;27;20039;-69
2022/07/06 06:22:19;;;;;;;3.90;0.60;;;;;;;;;;5155292;27;20415;-69
2022/07/06 06:24:45;;;;;;;5.38;1.10;;;;;;;;;;5155048;27;20043;-69
2022/07/06 06:27:12;;;;;;;3.50;0.63;;;;;;;;;;5151483;27;20830;-68
2022/07/06 06:29:38;;;;;;;3.47;0.75;;;;;;;;;;5127265;27;20091;-68
2022/07/06 06:32:08;;;;;;;4.13;0.77;;;;;;;;;;5125816;27;20470;-69
2022/07/06 06:34:34;;;;;;;3.05;0.75;;;;;;;;;;5129088;27;20045;-67
2022/07/06 06:37:00;;;;;;;3.25;0.73;;;;;;;;;;5129933;27;20110;-68
2022/07/06 06:39:26;;;;;;;6.28;1.20;;;;;;;;;;5132030;27;20027;-68
2022/07/06 06:41:53;;;;;;;3.25;0.80;;;;;;;;;;5136843;27;20729;-67
2022/07/06 06:44:22;;;;;;;7.22;0.90;;;;;;;;;;5159221;27;20117;-69
2022/07/06 06:46:48;;;;;;;4.00;1.52;;;;;;;;;;5158253;27;20050;-69
2022/07/06 06:49:14;;;;;;;5.43;0.82;;;;;;;;;;5157387;27;20060;-67
2022/07/06 06:51:42;;;;;;;2.05;0.60;;;;;;;;;;5156995;27;20042;-69
2022/07/06 06:54:11;;;;;;;2.17;0.90;;;;;;;;;;5157764;27;20460;-70
2022/07/06 06:56:37;;;;;;;4.63;0.70;;;;;;;;;;5155106;27;20388;-68
2022/07/06 06:59:03;;;;;;;4.57;0.70;;;;;;;;;;5147517;27;20039;-70
2022/07/06 07:01:30;;;;;;;4.03;0.60;;;;;;;;;;5140801;27;20318;-67
2022/07/06 07:03:56;;;;;;;2.08;0.60;;;;;;;;;;5111893;27;20772;-69
2022/07/06 07:06:28;;;;;;;5.82;0.90;;;;;;;;;;5133473;27;20119;-69
2022/07/06 07:08:55;;;;;;;7.00;0.57;;;;;;;;;;5150836;27;20441;-69
2022/07/06 07:11:21;;;;;;;4.30;0.70;;;;;;;;;;5143832;27;20074;-65
2022/07/06 07:13:48;;;;;;;3.85;0.90;;;;;;;;;;5150749;27;20035;-68
2022/07/06 07:16:15;;;;;;;6.43;0.68;;;;;;;;;;5154058;27;20034;-67
2022/07/06 07:18:41;;;;;;;2.25;0.60;;;;;;;;;;5139041;27;20144;-66
2022/07/06 07:21:07;;;;;;;5.93;1.15;;;;;;;;;;5142820;27;20528;-67
2022/07/06 07:23:33;;;;;;;3.97;0.52;;;;;;;;;;5144465;27;20038;-66
2022/07/06 07:25:59;;;;;;;3.88;0.52;;;;;;;;;;5146748;27;20054;-65
2022/07/06 07:28:25;;;;;;;2.55;0.63;;;;;;;;;;5150087;27;20088;-65
2022/07/06 07:30:51;;;;;;;4.68;0.63;;;;;;;;;;5133475;27;20039;-66
2022/07/06 07:33:17;;;;;;;4.65;0.70;;;;;;;;;;5148106;27;20031;-70
2022/07/06 07:35:44;;;;;;;6.20;0.50;;;;;;;;;;5134106;27;20046;-68
2022/07/06 07:38:10;;;;;;;2.80;0.60;;;;;;;;;;5135702;27;20639;-66
2022/07/06 07:40:38;;;;;;;4.50;0.90;;;;;;;;;;5120850;27;20039;-67
2022/07/06 07:43:04;;;;;;;3.15;0.63;;;;;;;;;;5121518;27;20466;-66
2022/07/06 07:45:30;;;;;;;5.40;0.70;;;;;;;;;;5125313;27;20134;-68
2022/07/06 07:47:56;;;;;;;5.47;0.80;;;;;;;;;;5146740;27;20121;-68
2022/07/06 07:50:22;;;;;;;3.92;0.70;;;;;;;;;;5139866;27;20047;-67
2022/07/06 07:52:49;;;;;;;2.42;0.60;;;;;;;;;;5138866;27;20107;-68
2022/07/06 07:55:15;;;;;;;3.80;0.90;;;;;;;;;;5125283;27;20466;-67
2022/07/06 07:57:41;;;;;;;4.05;0.52;;;;;;;;;;5140476;27;20066;-66
2022/07/06 08:00:08;;;;;;;4.28;0.60;;;;;;;;;;5141963;27;20050;-67
2022/07/06 08:02:34;;;;;;;5.25;0.98;;;;;;;;;;5135802;27;20072;-66
2022/07/06 08:05:00;;;;;;;5.38;0.65;;;;;;;;;;5140369;27;20062;-65
2022/07/06 08:07:27;;;;;;;4.22;0.70;;;;;;;;;;5144783;27;20039;-67
2022/07/06 08:09:53;;;;;;;4.18;0.52;;;;;;;;;;5131853;27;20039;-67
2022/07/06 08:12:19;;;;;;;1.33;0.50;;;;;;;;;;5130637;27;20040;-67
2022/07/06 08:14:46;;;;;;;4.43;0.52;;;;;;;;;;5122839;27;20031;-67
2022/07/06 08:17:12;;;;;;;1.95;0.50;;;;;;;;;;5128902;27;20049;-67
2022/07/06 08:19:38;;;;;;;2.58;0.50;;;;;;;;;;5126824;27;20034;-66
2022/07/06 08:22:06;;;;;;;4.13;0.60;;;;;;;;;;5124283;27;20034;-67
2022/07/06 08:24:35;;;;;;;7.13;0.80;;;;;;;;;;5137374;27;20035;-68
2022/07/06 08:27:02;;;;;;;8.77;1.52;;;;;;;;;;5119585;27;20038;-67
2022/07/06 08:29:28;;;;;;;5.45;1.55;;;;;;;;;;5131682;27;20129;-67
2022/07/06 08:31:56;;;;;;;2.03;0.60;;;;;;;;;;5143717;27;20501;-66
2022/07/06 08:34:22;;;;;;;4.13;0.75;;;;;;;;;;5133339;27;20053;-66
2022/07/06 08:36:48;;;;;;;2.88;0.70;;;;;;;;;;5119324;27;20046;-67
2022/07/06 08:39:14;;;;;;;7.30;0.70;;;;;;;;;;5138749;27;20415;-67
2022/07/06 08:41:44;;;;;;;4.03;0.75;;;;;;;;;;5140992;27;20047;-67
2022/07/06 08:44:11;;;;;;;11.27;1.08;;;;;;;;;;5134554;27;20050;-66
2022/07/06 08:46:40;;;;;;;2.53;0.50;;;;;;;;;;5151954;27;20043;-66
2022/07/06 08:49:09;;;;;;;6.80;0.38;;;;;;;;;;5136722;27;20043;-66
2022/07/06 08:51:36;;;;;;;4.65;0.50;;;;;;;;;;5122590;27;20028;-66
2022/07/06 08:54:05;;;;;;;4.40;0.60;;;;;;;;;;5141177;27;20049;-66
2022/07/06 08:56:32;;;;;;;3.97;0.30;;;;;;;;;;5153113;27;20508;-66
2022/07/06 08:58:58;;;;;;;4.30;0.50;;;;;;;;;;5137632;27;20081;-67
2022/07/06 09:01:26;;;;;;;3.67;0.45;;;;;;;;;;5128182;27;20038;-66
2022/07/06 09:03:54;;;;;;;5.68;0.80;;;;;;;;;;5132243;27;20053;-66
2022/07/06 09:06:25;;;;;;;2.95;0.52;;;;;;;;;;5132879;27;20043;-65
2022/07/06 09:08:53;;;;;;;3.00;0.40;;;;;;;;;;5128385;27;20051;-66
2022/07/06 09:11:19;;;;;;;2.80;0.40;;;;;;;;;;5125786;27;20035;-66
2022/07/06 09:13:46;;;;;;;1.73;0.57;;;;;;;;;;5142235;27;20042;-67
2022/07/06 09:16:16;;;;;;;3.58;0.63;;;;;;;;;;5119452;27;20046;-67
2022/07/06 09:18:46;;;;;;;1.50;0.38;;;;;;;;;;5142283;27;20046;-68
2022/07/06 09:21:12;;;;;;;1.88;0.40;;;;;;;;;;5129795;27;20043;-69
2022/07/06 09:23:38;;;;;;;2.13;0.60;;;;;;;;;;5124186;27;20609;-67
2022/07/06 09:26:05;;;;;;;1.48;0.30;;;;;;;;;;5126338;27;20071;-67
2022/07/06 09:28:42;;;;;;;1.92;0.30;;;;;;;;;;5130185;27;20395;-67
2022/07/06 09:31:08;;;;;;;1.42;0.30;;;;;;;;;;5117862;27;20035;-68
2022/07/06 09:33:36;;;;;;;1.95;0.30;;;;;;;;;;5142562;27;20041;-67
2022/07/06 09:36:02;;;;;;;3.53;0.50;;;;;;;;;;5151772;27;20082;-67
2022/07/06 09:38:28;;;;;;;1.67;0.32;;;;;;;;;;5135509;27;20064;-68
2022/07/06 09:40:55;;;;;;;24.70;3.75;;;;;;;;;;5130218;27;20046;-69
2022/07/06 09:43:22;;;;;;;12.23;2.20;;;;;;;;;;5139896;27;20046;-69
2022/07/06 09:45:55;;;;;;;7.13;0.90;;;;;;;;;;5150172;27;20103;-68
2022/07/06 09:48:21;;;;;;;4.60;1.00;;;;;;;;;;5143294;27;20030;-68
2022/07/06 09:50:53;;;;;;;4.32;0.50;;;;;;;;;;5124863;27;20382;-68
2022/07/06 09:53:21;;;;;;;4.93;0.40;;;;;;;;;;5126650;27;20036;-68
2022/07/06 09:55:47;;;;;;;4.25;0.50;;;;;;;;;;5131674;27;20425;-68
2022/07/06 09:58:14;;;;;;;2.03;0.35;;;;;;;;;;5120141;27;20464;-66
2022/07/06 10:00:41;;;;;;;3.28;0.80;;;;;;;;;;5128033;27;20047;-67
2022/07/06 10:03:08;;;;;;;3.38;0.45;;;;;;;;;;5134894;27;20087;-68
2022/07/06 10:05:43;;;;;;;2.65;0.57;;;;;;;;;;5131017;27;20039;-68
2022/07/06 10:08:09;;;;;;;2.05;0.30;;;;;;;;;;5144739;27;20495;-68
2022/07/06 10:10:36;;;;;;;3.47;0.40;;;;;;;;;;5132429;27;20031;-68
2022/07/06 10:13:03;;;;;;;1.20;0.40;;;;;;;;;;5153038;27;20489;-67
2022/07/06 10:15:33;;;;;;;3.15;0.50;;;;;;;;;;5151271;27;20047;-69
2022/07/06 10:18:04;;;;;;;2.75;0.40;;;;;;;;;;5122936;27;20700;-68
2022/07/06 10:20:31;;;;;;;1.83;0.50;;;;;;;;;;5126677;27;20035;-68
2022/07/06 10:22:59;;;;;;;1.80;0.30;;;;;;;;;;5130394;27;20055;-72
2022/07/06 10:25:26;;;;;;;4.63;0.60;;;;;;;;;;5129232;27;20052;-71
2022/07/06 10:27:53;;;;;;;5.40;0.52;;;;;;;;;;5120658;27;20023;-69
2022/07/06 10:30:20;;;;;;;5.32;0.32;;;;;;;;;;5151477;27;20043;-71
2022/07/06 10:32:48;;;;;;;7.95;1.52;;;;;;;;;;5142456;27;20453;-70
2022/07/06 10:35:14;;;;;;;3.58;0.88;;;;;;;;;;5140845;27;20054;-70
2022/07/06 10:37:41;;;;;;;7.80;1.30;;;;;;;;;;5118969;27;20130;-69
2022/07/06 10:43:01;;;;;;;4.47;0.50;;;;;;;;;;5122869;27;20040;-68
2022/07/06 10:45:27;;;;;;;2.70;0.73;;;;;;;;;;5124281;27;20477;-70
2022/07/06 10:48:11;;;;;;;3.03;0.70;;;;;;;;;;5140653;27;20035;-68
2022/07/06 10:50:41;;;;;;;5.93;0.65;;;;;;;;;;5136250;27;20035;-69
2022/07/06 10:53:10;;;;;;;1.67;0.50;;;;;;;;;;5135124;27;20042;-69
2022/07/06 10:55:38;;;;;;;4.43;0.50;;;;;;;;;;5133307;27;20035;-68
2022/07/06 10:58:05;;;;;;;2.78;0.47;;;;;;;;;;5127415;27;20039;-68
2022/07/06 11:00:50;;;;;;;2.22;0.50;;;;;;;;;;5123195;27;20062;-68
2022/07/06 11:03:32;;;;;;;1.23;0.50;;;;;;;;;;5131342;27;20050;-67
2022/07/06 11:06:00;;;;;;;1.90;0.50;;;;;;;;;;5129893;27;20051;-68
2022/07/06 11:08:44;;;;;;;2.38;0.50;;;;;;;;;;5121661;27;20050;-67
2022/07/06 11:11:11;;;;;;;1.15;0.30;;;;;;;;;;5127367;27;20035;-67
2022/07/06 11:13:58;;;;;;;3.72;0.52;;;;;;;;;;5122769;27;20036;-67
2022/07/06 11:16:26;;;;;;;4.07;0.50;;;;;;;;;;5111261;27;20047;-67
2022/07/06 11:19:03;;;;;;;5.93;0.50;;;;;;;;;;5128507;27;20039;-67
2022/07/06 11:21:48;;;;;;;1.98;0.68;;;;;;;;;;5125114;27;20043;-68
2022/07/06 11:24:19;;;;;;;1.75;0.40;;;;;;;;;;5139284;27;20075;-70
2022/07/06 11:26:46;;;;;;;2.30;0.43;;;;;;;;;;5143672;27;20071;-69
2022/07/06 11:29:13;;;;;;;4.05;0.60;;;;;;;;;;5155604;27;20035;-67
2022/07/06 11:31:41;;;;;;;5.60;0.68;;;;;;;;;;5141826;27;20050;-69
2022/07/06 11:34:08;;;;;;;3.83;0.63;;;;;;;;;;5152606;27;20049;-68
2022/07/06 11:36:34;;;;;;;1.98;0.32;;;;;;;;;;5153350;27;20050;-67
2022/07/06 11:39:00;;;;;;;2.88;0.50;;;;;;;;;;5152985;27;20050;-69
2022/07/06 11:41:26;;;;;;;4.40;0.40;;;;;;;;;;5145198;27;20077;-67
2022/07/06 11:43:53;;;;;;;5.82;0.90;;;;;;;;;;5125974;27;20067;-67
2022/07/06 11:46:20;;;;;;;5.55;0.60;;;;;;;;;;5123174;27;20047;-67
2022/07/06 11:48:49;;;;;;;3.53;0.57;;;;;;;;;;5131614;27;20032;-67
2022/07/06 11:51:16;;;;;;;3.58;0.88;;;;;;;;;;5140894;27;20035;-67
2022/07/06 11:53:46;;;;;;;3.95;0.75;;;;;;;;;;5133223;27;20083;-67
2022/07/06 11:56:13;;;;;;;5.28;0.63;;;;;;;;;;5129450;27;20110;-68
2022/07/06 11:58:40;;;;;;;4.32;0.50;;;;;;;;;;5120074;27;20085;-68
2022/07/06 12:01:07;;;;;;;1.23;0.60;;;;;;;;;;5123441;27;20035;-68
2022/07/06 12:03:34;;;;;;;3.30;0.60;;;;;;;;;;5134839;27;20157;-67
2022/07/06 12:06:05;;;;;;;3.10;0.57;;;;;;;;;;5137995;27;20050;-67
2022/07/06 12:08:33;;;;;;;2.85;0.73;;;;;;;;;;5150089;27;20423;-68
2022/07/06 12:11:00;;;;;;;1.98;0.40;;;;;;;;;;5143528;27;20054;-68
2022/07/06 12:13:26;;;;;;;2.08;0.73;;;;;;;;;;5153668;27;20031;-69
2022/07/06 12:15:53;;;;;;;2.70;0.60;;;;;;;;;;5138234;27;20060;-68
2022/07/06 12:18:19;;;;;;;3.28;0.68;;;;;;;;;;5158411;27;20035;-68
2022/07/06 12:20:45;;;;;;;2.25;0.32;;;;;;;;;;5138006;27;20082;-68
2022/07/06 12:23:11;;;;;;;4.28;0.60;;;;;;;;;;5129392;27;20043;-68
2022/07/06 12:25:37;;;;;;;3.40;0.50;;;;;;;;;;5125981;27;20414;-68
2022/07/06 12:28:04;;;;;;;1.35;0.30;;;;;;;;;;5135445;27;20035;-69
2022/07/06 12:30:30;;;;;;;0.70;0.50;;;;;;;;;;5126757;27;20043;-66
2022/07/06 12:33:16;;;;;;;2.45;0.60;;;;;;;;;;5122731;27;20169;-66
2022/07/06 12:35:42;;;;;;;2.00;0.50;;;;;;;;;;5134770;27;20410;-67
2022/07/06 12:38:09;;;;;;;2.13;0.40;;;;;;;;;;5118379;27;20034;-67
2022/07/06 12:40:38;;;;;;;4.13;0.65;;;;;;;;;;5138119;27;20034;-68
2022/07/06 12:43:05;;;;;;;4.32;0.80;;;;;;;;;;5153221;27;20038;-68
2022/07/06 12:45:32;;;;;;;3.92;0.43;;;;;;;;;;5140367;27;20034;-69
2022/07/06 12:47:59;;;;;;;3.78;0.73;;;;;;;;;;5149524;27;20035;-68
2022/07/06 12:50:33;;;;;;;1.40;0.60;;;;;;;;;;5154369;27;20053;-69
2022/07/06 12:53:00;;;;;;;1.73;0.30;;;;;;;;;;5152977;27;20041;-70
2022/07/06 12:55:29;;;;;;;2.72;0.50;;;;;;;;;;5134914;27;20051;-68
2022/07/06 12:57:55;;;;;;;1.90;0.38;;;;;;;;;;5146479;27;20045;-68
2022/07/06 13:00:22;;;;;;;2.75;0.45;;;;;;;;;;5153619;27;20385;-68
2022/07/06 13:02:53;;;;;;;2.95;0.70;;;;;;;;;;5151447;27;20046;-68
2022/07/06 13:05:30;;;;;;;2.85;0.50;;;;;;;;;;5155422;27;20388;-69
2022/07/06 13:07:58;;;;;;;1.05;0.40;;;;;;;;;;5152815;27;20053;-69
2022/07/06 13:10:24;;;;;;;1.77;0.40;;;;;;;;;;5147152;27;20070;-68
2022/07/06 13:12:51;;;;;;;1.08;0.30;;;;;;;;;;5154222;27;20134;-68
2022/07/06 13:15:17;;;;;;;2.28;0.50;;;;;;;;;;5153581;27;20049;-68
2022/07/06 13:17:46;;;;;;;1.48;0.57;;;;;;;;;;5129296;27;20039;-68
2022/07/06 13:20:13;;;;;;;4.50;0.70;;;;;;;;;;5135066;27;20065;-69
2022/07/06 13:22:39;;;;;;;3.03;0.47;;;;;;;;;;5125817;27;20042;-69
2022/07/06 13:25:06;;;;;;;4.50;0.60;;;;;;;;;;5123595;27;20035;-69
2022/07/06 13:27:32;;;;;;;2.10;0.50;;;;;;;;;;5126662;27;20426;-69
2022/07/06 13:29:58;;;;;;;2.22;0.60;;;;;;;;;;5122546;27;20084;-69
2022/07/06 13:32:24;;;;;;;4.13;1.08;;;;;;;;;;5126626;27;20603;-69
2022/07/06 13:34:50;;;;;;;1.58;0.70;;;;;;;;;;5143608;27;20264;-68
2022/07/06 13:37:20;;;;;;;0.75;0.40;;;;;;;;;;5154789;27;20404;-68
2022/07/06 13:39:46;;;;;;;3.35;0.68;;;;;;;;;;5149127;27;20088;-68
2022/07/06 13:42:12;;;;;;;5.40;0.70;;;;;;;;;;5136417;27;20709;-68
2022/07/06 13:44:38;;;;;;;3.30;0.55;;;;;;;;;;5149193;27;20127;-68
2022/07/06 13:47:05;;;;;;;1.15;0.50;;;;;;;;;;5130928;27;20061;-67
2022/07/06 13:49:31;;;;;;;3.17;0.70;;;;;;;;;;5153820;27;20039;-67
2022/07/06 13:52:03;;;;;;;6.45;1.30;;;;;;;;;;5156520;27;20061;-68
2022/07/06 13:54:30;;;;;;;2.47;0.50;;;;;;;;;;5156390;27;20039;-68
2022/07/06 13:56:57;;;;;;;4.60;0.60;;;;;;;;;;5149680;27;20049;-68
2022/07/06 13:59:24;;;;;;;6.00;0.80;;;;;;;;;;5147608;27;20464;-67
2022/07/06 14:01:50;;;;;;;1.42;0.50;;;;;;;;;;5156460;27;20039;-67
2022/07/06 14:04:16;;;;;;;2.05;0.60;;;;;;;;;;5155996;27;20523;-68
2022/07/06 14:06:43;;;;;;;1.20;0.52;;;;;;;;;;5152177;27;20074;-68
2022/07/06 14:09:09;;;;;;;2.15;0.40;;;;;;;;;;5143869;27;20074;-68
2022/07/06 14:11:36;;;;;;;2.35;0.65;;;;;;;;;;5130291;27;20035;-69
2022/07/06 14:14:02;;;;;;;2.33;0.60;;;;;;;;;;5127684;27;20031;-69
2022/07/06 14:16:28;;;;;;;1.58;0.43;;;;;;;;;;5128455;27;20039;-68
2022/07/06 14:18:54;;;;;;;4.00;0.75;;;;;;;;;;5133827;27;20058;-66
2022/07/06 14:21:21;;;;;;;2.38;0.70;;;;;;;;;;5129132;27;20035;-66
2022/07/06 14:23:48;;;;;;;3.80;0.57;;;;;;;;;;5135049;27;20035;-66
2022/07/06 14:26:14;;;;;;;5.55;0.60;;;;;;;;;;5127056;27;20719;-67
2022/07/06 14:28:40;;;;;;;1.42;0.65;;;;;;;;;;5152058;27;20041;-68
2022/07/06 14:31:06;;;;;;;1.95;0.60;;;;;;;;;;5123918;27;20039;-68
2022/07/06 14:33:32;;;;;;;3.25;0.60;;;;;;;;;;5137199;27;20041;-68
2022/07/06 14:35:59;;;;;;;1.98;0.60;;;;;;;;;;5150001;27;20460;-68
2022/07/06 14:38:27;;;;;;;4.28;0.80;;;;;;;;;;5153696;27;20039;-68
2022/07/06 14:40:53;;;;;;;5.88;1.15;;;;;;;;;;5138408;27;20043;-68
2022/07/06 14:43:19;;;;;;;1.35;0.57;;;;;;;;;;5144082;27;20050;-68
2022/07/06 14:45:46;;;;;;;2.25;0.52;;;;;;;;;;5154146;27;20047;-68
2022/07/06 14:48:12;;;;;;;2.67;0.90;;;;;;;;;;5148072;27;20118;-68
2022/07/06 14:50:38;;;;;;;2.55;0.70;;;;;;;;;;5156321;27;20042;-68